Time;durP1;ratioP1;P1;durP2;ratioP2;P2;SDS_P1;SDS_P2;PMS_P1;PMS_P2;Temp;Humidity;BMP_temperature;BMP_pressure;BME280_temperature;BME280_humidity;BME280_pressure;Samples;Min_cycle;Max_cycle;Signal;HPM_P1;HPM_P2
2023/11/17 00:02:22;;;;;;;;;;;;;;;19.91;50.61;100499.13;5002955;28;6032;-67
2023/11/17 00:04:48;;;;;;;;;;;;;;;19.91;50.64;100507.75;5003116;28;2331;-68
2023/11/17 00:07:15;;;;;;;;;;;;;;;19.91;50.38;100504.88;5005157;28;2206;-67
2023/11/17 00:09:42;;;;;;;;;;;;;;;19.91;50.57;100505.59;5006205;28;1823;-67
2023/11/17 00:12:08;;;;;;;;;;;;;;;19.92;50.61;100518.56;5001995;28;2272;-67
2023/11/17 00:14:35;;;;;;;;;;;;;;;19.91;50.62;100511.34;5003936;28;2056;-68
2023/11/17 00:17:01;;;;;;;;;;;;;;;19.90;50.30;100509.84;5004037;28;2092;-67
2023/11/17 00:19:28;;;;;;;;;;;;;;;19.91;50.63;100504.88;5005749;28;2017;-67
2023/11/17 00:21:54;;;;;;;;;;;;;;;19.91;50.54;100504.88;5002669;28;1954;-67
2023/11/17 00:24:21;;;;;;;;;;;;;;;19.91;50.45;100508.47;5005135;28;2108;-68
2023/11/17 00:26:48;;;;;;;;;;;;;;;19.90;50.66;100512.72;5019985;28;2104;-67
2023/11/17 00:29:14;;;;;;;;;;;;;;;19.91;50.65;100516.38;5004897;28;1949;-67
2023/11/17 00:31:42;;;;;;;;;;;;;;;19.91;50.60;100516.38;5003773;28;6004;-67
2023/11/17 00:34:08;;;;;;;;;;;;;;;19.91;50.50;100511.34;5004816;28;2088;-68
2023/11/17 00:36:35;;;;;;;;;;;;;;;19.91;50.68;100514.22;5035009;28;2023;-67
2023/11/17 00:39:02;;;;;;;;;;;;;;;19.91;50.47;100516.38;5004023;28;1628;-68
2023/11/17 00:41:29;;;;;;;;;;;;;;;19.91;50.54;100522.84;5004188;28;2091;-68
2023/11/17 00:43:56;;;;;;;;;;;;;;;19.93;50.68;100525.03;5001111;28;2159;-68
2023/11/17 00:46:22;;;;;;;;;;;;;;;19.92;50.54;100530.06;5002685;28;2092;-68
2023/11/17 00:48:49;;;;;;;;;;;;;;;19.92;50.64;100524.31;5001595;28;2069;-68
2023/11/17 00:51:18;;;;;;;;;;;;;;;19.92;50.50;100523.59;5003960;28;2144;-68
2023/11/17 00:53:46;;;;;;;;;;;;;;;19.92;50.54;100530.06;5003921;28;2056;-68
2023/11/17 00:56:13;;;;;;;;;;;;;;;19.93;50.46;100530.78;5004237;28;2041;-68
2023/11/17 00:58:39;;;;;;;;;;;;;;;19.92;50.61;100532.94;5001441;28;2127;-68
2023/11/17 01:01:06;;;;;;;;;;;;;;;19.92;50.59;100540.81;5001504;28;6261;-68
2023/11/17 01:03:33;;;;;;;;;;;;;;;19.92;50.55;100543.69;5002835;28;2112;-68
2023/11/17 01:06:00;;;;;;;;;;;;;;;19.90;50.65;100544.34;5002098;28;2033;-68
2023/11/17 01:08:28;;;;;;;;;;;;;;;19.92;50.59;100553.06;5003297;28;2267;-68
2023/11/17 01:10:55;;;;;;;;;;;;;;;19.91;50.61;100553.72;5018805;28;2040;-68
2023/11/17 01:13:22;;;;;;;;;;;;;;;19.93;50.66;100545.94;5003519;28;1946;-68
2023/11/17 01:15:48;;;;;;;;;;;;;;;19.92;50.58;100550.19;5003340;28;2050;-68
2023/11/17 01:18:15;;;;;;;;;;;;;;;19.92;50.49;100544.44;5002972;28;2489;-68
2023/11/17 01:20:41;;;;;;;;;;;;;;;19.93;50.58;100550.91;5006795;28;2139;-68
2023/11/17 01:23:09;;;;;;;;;;;;;;;19.93;50.52;100543.06;5002006;28;2072;-68
2023/11/17 01:25:36;;;;;;;;;;;;;;;19.93;50.54;100548.81;5002272;28;2260;-68
2023/11/17 01:28:03;;;;;;;;;;;;;;;19.93;50.49;100548.81;5018110;28;1918;-68
2023/11/17 01:30:30;;;;;;;;;;;;;;;19.95;50.70;100548.88;5018695;28;6134;-68
2023/11/17 01:32:57;;;;;;;;;;;;;;;19.94;50.64;100541.66;5008596;28;2037;-68
2023/11/17 01:35:23;;;;;;;;;;;;;;;19.93;50.68;100543.06;5017713;28;2073;-68
2023/11/17 01:37:50;;;;;;;;;;;;;;;19.93;50.67;100543.06;5017354;28;2103;-68
2023/11/17 01:40:20;;;;;;;;;;;;;;;19.93;50.54;100543.06;5015865;28;2218;-68
2023/11/17 01:42:46;;;;;;;;;;;;;;;19.94;50.70;100549.53;5001950;28;2088;-68
2023/11/17 01:45:14;;;;;;;;;;;;;;;19.94;50.76;100556.03;5002158;28;2155;-68
2023/11/17 01:47:42;;;;;;;;;;;;;;;19.94;50.69;100556.03;5034208;28;2168;-68
2023/11/17 01:50:12;;;;;;;;;;;;;;;19.93;50.77;100565.28;5002509;28;2093;-68
2023/11/17 01:52:40;;;;;;;;;;;;;;;19.93;50.58;100571.03;5018663;28;1967;-68
2023/11/17 01:55:11;;;;;;;;;;;;;;;19.93;50.55;100557.41;5017775;28;2016;-68
2023/11/17 01:57:38;;;;;;;;;;;;;;;19.92;50.72;100561.69;5002249;28;2046;-68
2023/11/17 02:00:07;;;;;;;;;;;;;;;19.93;50.76;100557.41;5004960;28;6048;-68
2023/11/17 02:02:38;;;;;;;;;;;;;;;19.93;50.64;100566.03;5003495;28;2124;-69
2023/11/17 02:05:07;;;;;;;;;;;;;;;19.94;50.64;100567.50;4999605;28;2205;-68
2023/11/17 02:07:41;;;;;;;;;;;;;;;19.95;50.66;100568.25;5017661;28;2340;-68
2023/11/17 02:10:08;;;;;;;;;;;;;;;19.94;50.59;100564.63;5016016;28;2000;-67
2023/11/17 02:12:35;;;;;;;;;;;;;;;19.95;50.58;100563.25;5001960;28;2069;-68
2023/11/17 02:15:09;;;;;;;;;;;;;;;19.94;50.59;100561.75;5016606;28;2063;-68
2023/11/17 02:17:42;;;;;;;;;;;;;;;19.95;50.59;100560.38;4985493;28;2220;-68
2023/11/17 02:20:13;;;;;;;;;;;;;;;19.95;50.65;100563.25;5033212;28;1976;-67
2023/11/17 02:22:41;;;;;;;;;;;;;;;19.95;50.77;100568.25;5000866;28;2163;-68
2023/11/17 02:25:23;;;;;;;;;;;;;;;19.95;50.55;100569.00;4997753;28;2330;-67
2023/11/17 02:28:07;;;;;;;;;;;;;;;19.94;50.79;100567.50;5000764;28;2546;-68
2023/11/17 02:30:34;;;;;;;;;;;;;;;19.94;50.57;100567.50;5010087;28;6113;-68
2023/11/17 02:33:00;;;;;;;;;;;;;;;19.94;50.79;100572.53;4998632;28;2112;-68
2023/11/17 02:35:28;;;;;;;;;;;;;;;19.94;50.65;100579.00;5002965;28;2088;-68
2023/11/17 02:37:59;;;;;;;;;;;;;;;19.94;50.63;100573.25;5017689;28;2337;-68
2023/11/17 02:40:28;;;;;;;;;;;;;;;19.93;50.55;100579.66;5007703;28;2065;-68
2023/11/17 02:42:57;;;;;;;;;;;;;;;19.93;50.59;100574.66;5002122;28;1766;-68
2023/11/17 02:45:25;;;;;;;;;;;;;;;19.94;50.61;100578.28;4998432;28;2107;-68
2023/11/17 02:47:55;;;;;;;;;;;;;;;19.94;50.55;100579.00;5001547;28;2247;-68
2023/11/17 02:50:31;;;;;;;;;;;;;;;19.95;50.57;100589.13;5017359;28;2124;-68
2023/11/17 02:53:18;;;;;;;;;;;;;;;19.95;50.54;100576.88;5001148;28;2107;-68
2023/11/17 02:55:46;;;;;;;;;;;;;;;19.95;50.80;100574.75;5013829;28;2100;-68
2023/11/17 02:58:13;;;;;;;;;;;;;;;19.96;50.81;100581.25;5005415;28;2029;-69
2023/11/17 03:00:39;;;;;;;;;;;;;;;19.95;50.76;100586.25;4999184;28;6005;-68
2023/11/17 03:03:06;;;;;;;;;;;;;;;19.95;50.58;100586.25;5002022;28;2017;-68
2023/11/17 03:05:36;;;;;;;;;;;;;;;19.96;50.79;100581.97;5030416;28;2192;-68
2023/11/17 03:08:03;;;;;;;;;;;;;;;19.95;50.81;100589.13;5015956;28;2071;-68
2023/11/17 03:10:30;;;;;;;;;;;;;;;19.94;50.62;100596.25;4999145;28;2125;-68
2023/11/17 03:12:57;;;;;;;;;;;;;;;19.95;50.71;100594.09;5017433;28;1793;-68
2023/11/17 03:15:24;;;;;;;;;;;;;;;19.94;50.53;100601.25;5001277;28;2119;-68
2023/11/17 03:17:51;;;;;;;;;;;;;;;19.95;50.53;100603.50;5002168;28;2088;-68
2023/11/17 03:20:18;;;;;;;;;;;;;;;19.95;50.68;100597.75;5000783;28;2052;-68
2023/11/17 03:22:44;;;;;;;;;;;;;;;19.94;50.75;100607.75;5001668;28;1611;-68
2023/11/17 03:25:15;;;;;;;;;;;;;;;19.94;50.87;100602.00;4998498;28;2245;-68
2023/11/17 03:27:42;;;;;;;;;;;;;;;19.94;50.77;100607.75;5001925;28;2085;-68
2023/11/17 03:30:09;;;;;;;;;;;;;;;19.95;50.65;100608.47;4997083;28;6522;-68
2023/11/17 03:32:36;;;;;;;;;;;;;;;19.95;50.76;100603.50;5000759;28;2252;-68
2023/11/17 03:35:04;;;;;;;;;;;;;;;19.96;50.66;100615.72;5000793;28;2248;-68
2023/11/17 03:37:30;;;;;;;;;;;;;;;19.95;50.71;100615.00;5005087;28;2119;-68
2023/11/17 03:39:57;;;;;;;;;;;;;;;19.96;50.61;100622.22;4982799;28;2145;-68
2023/11/17 03:42:23;;;;;;;;;;;;;;;19.96;50.60;100622.22;5016154;28;2224;-68
2023/11/17 03:44:51;;;;;;;;;;;;;;;19.96;50.61;100616.47;5000591;28;2168;-68
2023/11/17 03:47:18;;;;;;;;;;;;;;;19.96;50.64;100616.47;5002374;28;2037;-68
2023/11/17 03:49:47;;;;;;;;;;;;;;;19.95;50.81;100615.00;5001425;28;2049;-69
2023/11/17 03:52:15;;;;;;;;;;;;;;;19.96;50.63;100607.09;5002112;28;2287;-68
2023/11/17 03:54:42;;;;;;;;;;;;;;;19.97;50.52;100620.06;5000546;28;2096;-68
2023/11/17 03:57:10;;;;;;;;;;;;;;;19.97;50.73;100617.19;5002441;28;2052;-68
2023/11/17 03:59:36;;;;;;;;;;;;;;;19.97;50.67;100620.81;5004753;28;2073;-68
2023/11/17 04:02:03;;;;;;;;;;;;;;;19.99;50.69;100620.16;5003360;28;6132;-68
2023/11/17 04:04:31;;;;;;;;;;;;;;;19.98;50.78;100630.91;5005728;28;2233;-68
2023/11/17 04:06:58;;;;;;;;;;;;;;;19.99;50.63;100631.66;5004234;28;1855;-68
2023/11/17 04:09:25;;;;;;;;;;;;;;;19.99;50.56;100637.41;5003772;28;2163;-68
2023/11/17 04:11:52;;;;;;;;;;;;;;;20.00;50.72;100636.75;5019228;28;1996;-68
2023/11/17 04:14:21;;;;;;;;;;;;;;;19.99;50.66;100638.13;5003731;28;2178;-68
2023/11/17 04:16:49;;;;;;;;;;;;;;;20.00;50.50;100639.63;5005093;28;2122;-68
2023/11/17 04:19:19;;;;;;;;;;;;;;;20.02;50.68;100642.59;5001636;28;2169;-68
2023/11/17 04:21:47;;;;;;;;;;;;;;;20.03;50.73;100646.22;5003764;28;2239;-68
2023/11/17 04:24:13;;;;;;;;;;;;;;;20.03;50.68;100644.06;5008673;28;2111;-68
2023/11/17 04:26:43;;;;;;;;;;;;;;;20.03;50.84;100643.34;5004671;28;2029;-68
2023/11/17 04:29:09;;;;;;;;;;;;;;;20.02;50.76;100638.97;5002278;28;2326;-68
2023/11/17 04:31:36;;;;;;;;;;;;;;;20.01;50.70;100646.84;5001659;28;6287;-68
2023/11/17 04:34:02;;;;;;;;;;;;;;;20.03;50.85;100657.72;5003080;28;2257;-68
2023/11/17 04:36:34;;;;;;;;;;;;;;;20.01;50.70;100658.34;5002547;28;2192;-70
2023/11/17 04:39:01;;;;;;;;;;;;;;;20.02;50.83;100659.84;5036187;28;2076;-75
2023/11/17 04:41:27;;;;;;;;;;;;;;;20.02;50.84;100654.09;5004602;28;2125;-75
2023/11/17 04:43:54;;;;;;;;;;;;;;;20.04;50.83;100662.81;5003476;28;1951;-76
2023/11/17 04:46:21;;;;;;;;;;;;;;;20.05;50.73;100661.41;5003294;28;2163;-75
2023/11/17 04:48:49;;;;;;;;;;;;;;;20.05;50.85;100664.28;5002753;28;2100;-75
2023/11/17 04:51:15;;;;;;;;;;;;;;;20.06;50.86;100665.03;5004141;28;2148;-75
2023/11/17 04:53:42;;;;;;;;;;;;;;;20.06;50.77;100659.28;5005186;28;2040;-75
2023/11/17 04:56:11;;;;;;;;;;;;;;;20.06;50.72;100665.75;5002679;28;2157;-75
2023/11/17 04:58:38;;;;;;;;;;;;;;;20.07;50.88;100661.50;4998940;28;2482;-74
2023/11/17 05:01:04;;;;;;;;;;;;;;;20.07;50.78;100667.25;5001176;28;6062;-75
2023/11/17 05:03:31;;;;;;;;;;;;;;;20.06;50.82;100671.50;5004027;28;2088;-75
2023/11/17 05:05:59;;;;;;;;;;;;;;;20.06;50.93;100671.50;5003002;28;2494;-75
2023/11/17 05:08:28;;;;;;;;;;;;;;;20.06;50.72;100674.38;5003839;28;2103;-75
2023/11/17 05:10:55;;;;;;;;;;;;;;;20.06;50.80;100682.25;5004155;28;2048;-74
2023/11/17 05:13:22;;;;;;;;;;;;;;;20.07;50.71;100683.75;5002750;28;2120;-75
2023/11/17 05:15:48;;;;;;;;;;;;;;;20.07;50.76;100689.50;5005068;28;2063;-75
2023/11/17 05:18:15;;;;;;;;;;;;;;;20.07;50.76;100696.00;5003833;28;1997;-75
2023/11/17 05:20:42;;;;;;;;;;;;;;;20.08;50.95;100697.47;5003314;28;2494;-75
2023/11/17 05:23:12;;;;;;;;;;;;;;;20.08;50.95;100691.72;5002186;28;2586;-75
2023/11/17 05:25:40;;;;;;;;;;;;;;;20.08;50.84;100699.59;5004414;28;1795;-75
2023/11/17 05:28:09;;;;;;;;;;;;;;;20.09;50.61;100698.97;5004101;28;2002;-75
2023/11/17 05:30:36;;;;;;;;;;;;;;;20.11;50.78;100697.56;5002658;28;6145;-75
2023/11/17 05:33:03;;;;;;;;;;;;;;;20.11;50.99;100700.44;5002667;28;2105;-75
2023/11/17 05:35:30;;;;;;;;;;;;;;;20.12;50.90;100707.69;5003782;28;2085;-76
2023/11/17 05:37:56;;;;;;;;;;;;;;;20.13;50.89;100703.41;5002438;28;2201;-75
2023/11/17 05:40:22;;;;;;;;;;;;;;;20.11;50.69;100706.91;5002036;28;2302;-75
2023/11/17 05:42:49;;;;;;;;;;;;;;;20.11;50.90;100717.69;5004693;28;1586;-77
2023/11/17 05:45:16;;;;;;;;;;;;;;;20.11;50.74;100717.69;5003816;28;1672;-75
2023/11/17 05:47:43;;;;;;;;;;;;;;;20.12;50.79;100713.44;5002239;28;2172;-75
2023/11/17 05:50:11;;;;;;;;;;;;;;;20.12;50.91;100713.44;5002906;28;2481;-76
2023/11/17 05:52:39;;;;;;;;;;;;;;;20.10;50.68;100711.19;5002966;28;2357;-75
2023/11/17 05:55:06;;;;;;;;;;;;;;;20.11;51.00;100714.81;5004265;28;1847;-76
2023/11/17 05:57:33;;;;;;;;;;;;;;;20.13;50.77;100726.41;5003514;28;2077;-75
2023/11/17 06:00:02;;;;;;;;;;;;;;;20.12;50.72;100722.06;5002981;28;2052;-75
2023/11/17 06:02:37;;;;;;;;;;;;;;;20.14;50.87;100733.66;5003490;28;6424;-75
2023/11/17 06:05:04;;;;;;;;;;;;;;;20.14;50.74;100736.53;5002512;28;2147;-76
2023/11/17 06:07:33;;;;;;;;;;;;;;;20.15;50.74;100738.00;5003499;28;1606;-75
2023/11/17 06:10:00;;;;;;;;;;;;;;;20.15;50.86;100735.84;5002333;28;2258;-76
2023/11/17 06:12:27;;;;;;;;;;;;;;;20.15;50.77;100741.59;5032859;28;2263;-75
2023/11/17 06:14:55;;;;;;;;;;;;;;;20.15;50.76;100735.13;5002145;28;2307;-75
2023/11/17 06:17:22;;;;;;;;;;;;;;;20.15;50.92;100735.13;5003440;28;1858;-74
2023/11/17 06:19:49;;;;;;;;;;;;;;;20.15;50.85;100735.13;4998741;28;2231;-75
2023/11/17 06:22:15;;;;;;;;;;;;;;;20.16;50.92;100737.34;4998707;28;2136;-74
2023/11/17 06:24:42;;;;;;;;;;;;;;;20.18;50.73;100739.56;4999427;28;2559;-77
2023/11/17 06:27:10;;;;;;;;;;;;;;;20.17;50.74;100743.84;5004138;28;2009;-76
2023/11/17 06:29:37;;;;;;;;;;;;;;;20.16;50.99;100753.84;4999542;28;2127;-74
2023/11/17 06:32:03;;;;;;;;;;;;;;;20.15;50.80;100749.50;5001055;28;6002;-74
2023/11/17 06:34:30;;;;;;;;;;;;;;;20.15;50.70;100753.09;5000265;28;2108;-76
2023/11/17 06:36:56;;;;;;;;;;;;;;;20.13;51.07;100760.91;5001228;28;2291;-77
2023/11/17 06:39:23;;;;;;;;;;;;;;;19.15;46.79;100769.19;5031115;28;2121;-75
2023/11/17 06:41:51;;;;;;;;;;;;;;;19.49;46.12;100760.78;5001660;28;2132;-76
2023/11/17 06:44:19;;;;;;;;;;;;;;;19.56;46.20;100762.59;5002161;28;2176;-74
2023/11/17 06:46:46;;;;;;;;;;;;;;;18.09;45.77;100763.69;4999690;28;3248;-70
2023/11/17 06:49:14;;;;;;;;;;;;;;;17.12;45.03;100766.91;5001988;28;1987;-70
2023/11/17 06:51:43;;;;;;;;;;;;;;;16.60;43.80;100759.50;5000910;28;2069;-70
2023/11/17 06:54:13;;;;;;;;;;;;;;;16.02;43.54;100771.69;5001771;28;2088;-71
2023/11/17 06:56:42;;;;;;;;;;;;;;;16.31;43.35;100780.66;5001618;28;2147;-70
2023/11/17 06:59:09;;;;;;;;;;;;;;;15.97;43.03;100789.94;5002501;28;1593;-71
2023/11/17 07:01:36;;;;;;;;;;;;;;;15.94;43.19;100783.34;5006915;28;6234;-69
2023/11/17 07:04:08;;;;;;;;;;;;;;;15.68;43.83;100790.94;5027056;28;2222;-71
2023/11/17 07:06:35;;;;;;;;;;;;;;;16.02;43.09;100783.13;5001549;28;2045;-71
2023/11/17 07:09:01;;;;;;;;;;;;;;;15.86;42.49;100792.16;5002370;28;2229;-71
2023/11/17 07:11:29;;;;;;;;;;;;;;;15.78;42.89;100800.22;5003526;28;2053;-71
2023/11/17 07:13:55;;;;;;;;;;;;;;;15.72;42.60;100802.66;5002446;28;2147;-70
2023/11/17 07:16:24;;;;;;;;;;;;;;;15.72;42.83;100793.38;5016284;28;2181;-72
2023/11/17 07:19:08;;;;;;;;;;;;;;;17.04;44.02;100795.03;5001092;28;2001;-78
2023/11/17 07:21:35;;;;;;;;;;;;;;;18.09;44.08;100804.53;4999977;28;3934;-70
2023/11/17 07:24:06;;;;;;;;;;;;;;;18.56;45.83;100801.31;4998700;28;3943;-69
2023/11/17 07:26:33;;;;;;;;;;;;;;;18.87;46.30;100802.19;5002910;28;2360;-68
2023/11/17 07:29:00;;;;;;;;;;;;;;;19.10;46.06;100807.69;4980260;28;7770;-66
2023/11/17 07:31:37;;;;;;;;;;;;;;;19.14;45.91;100805.03;4995972;28;7172;-66
2023/11/17 07:34:05;;;;;;;;;;;;;;;19.29;46.43;100799.97;5007728;28;2295;-69
2023/11/17 07:36:32;;;;;;;;;;;;;;;19.43;46.31;100804.31;5008846;28;2265;-69
2023/11/17 07:38:59;;;;;;;;;;;;;;;19.54;46.20;100817.06;5011429;28;2323;-69
2023/11/17 07:41:25;;;;;;;;;;;;;;;19.66;46.29;100809.03;5025628;28;3939;-70
2023/11/17 07:43:53;;;;;;;;;;;;;;;19.72;46.33;100816.47;5008101;28;4417;-71
2023/11/17 07:46:19;;;;;;;;;;;;;;;19.75;46.33;100815.19;5009225;28;1608;-72
2023/11/17 07:48:46;;;;;;;;;;;;;;;19.76;46.58;100814.53;5013628;28;2510;-74
2023/11/17 07:51:21;;;;;;;;;;;;;;;19.82;47.12;100828.47;5024048;28;4412;-70
2023/11/17 07:53:48;;;;;;;;;;;;;;;19.86;47.44;100828.66;5010948;28;3815;-71
2023/11/17 07:56:16;;;;;;;;;;;;;;;19.92;47.65;100822.44;5007557;28;4730;-70
2023/11/17 07:58:42;;;;;;;;;;;;;;;19.94;47.51;100831.16;5011062;28;2202;-70
2023/11/17 08:01:09;;;;;;;;;;;;;;;19.98;47.59;100829.22;5013059;28;5997;-70
2023/11/17 08:03:36;;;;;;;;;;;;;;;20.06;47.44;100848.97;5009280;28;2413;-71
2023/11/17 08:06:03;;;;;;;;;;;;;;;20.04;47.75;100843.91;5009739;28;2088;-70
2023/11/17 08:08:30;;;;;;;;;;;;;;;20.14;47.60;100840.75;5037436;28;2371;-72
2023/11/17 08:10:57;;;;;;;;;;;;;;;20.43;46.95;100845.69;5009955;28;2371;-70
2023/11/17 08:13:23;;;;;;;;;;;;;;;20.46;46.71;100847.28;5011989;28;2421;-71
2023/11/17 08:15:50;;;;;;;;;;;;;;;20.48;46.57;100856.00;5007267;28;2388;-71
2023/11/17 08:18:17;;;;;;;;;;;;;;;20.53;46.60;100844.69;5008898;28;2299;-70
2023/11/17 08:20:45;;;;;;;;;;;;;;;20.48;46.64;100858.88;5010354;28;1627;-69
2023/11/17 08:23:14;;;;;;;;;;;;;;;20.55;46.45;100862.00;5011442;28;1714;-70
2023/11/17 08:25:40;;;;;;;;;;;;;;;20.37;46.67;100848.28;5018388;28;2432;-73
2023/11/17 08:28:07;;;;;;;;;;;;;;;20.36;47.05;100864.03;5010501;28;1628;-74
2023/11/17 08:30:33;;;;;;;;;;;;;;;20.33;47.10;100867.47;5005968;28;6052;-76
2023/11/17 08:33:15;;;;;;;;;;;;;;;20.38;47.46;100872.03;5005004;28;2366;-73
2023/11/17 08:35:43;;;;;;;;;;;;;;;20.33;47.52;100871.09;5009207;28;2366;-75
2023/11/17 08:38:09;;;;;;;;;;;;;;;20.32;47.44;100875.38;5012280;28;1873;-71
2023/11/17 08:40:36;;;;;;;;;;;;;;;20.31;47.66;100876.75;5009071;28;2367;-71
2023/11/17 08:43:03;;;;;;;;;;;;;;;20.28;47.35;100883.81;5009212;28;1771;-72
2023/11/17 08:45:34;;;;;;;;;;;;;;;20.31;47.61;100885.38;5010642;28;2174;-71
2023/11/17 08:48:03;;;;;;;;;;;;;;;20.32;47.54;100891.88;5011373;28;2307;-70
2023/11/17 08:50:30;;;;;;;;;;;;;;;20.33;47.41;100896.97;5011777;28;2327;-69
2023/11/17 08:52:57;;;;;;;;;;;;;;;20.34;47.07;100898.47;5001399;28;2411;-70
2023/11/17 08:55:27;;;;;;;;;;;;;;;20.39;47.34;100897.28;4998180;28;4268;-71
2023/11/17 08:57:56;;;;;;;;;;;;;;;20.41;47.24;100902.38;5005194;28;2369;-70
2023/11/17 09:00:25;;;;;;;;;;;;;;;20.42;47.31;100904.59;5002965;28;6010;-69
2023/11/17 09:02:53;;;;;;;;;;;;;;;20.43;47.46;100902.47;5003622;28;2239;-70
2023/11/17 09:05:20;;;;;;;;;;;;;;;20.44;47.25;100904.69;5005822;28;2317;-72
2023/11/17 09:07:49;;;;;;;;;;;;;;;20.44;47.53;100916.19;5005042;28;2309;-71
2023/11/17 09:10:20;;;;;;;;;;;;;;;20.48;47.65;100918.53;5004483;28;2206;-69
2023/11/17 09:12:47;;;;;;;;;;;;;;;20.50;47.63;100925.13;5003794;28;2295;-68
2023/11/17 09:15:14;;;;;;;;;;;;;;;20.56;47.53;100921.03;5007888;28;2112;-74
2023/11/17 09:17:41;;;;;;;;;;;;;;;20.65;47.77;100923.66;5012351;28;1960;-72
2023/11/17 09:20:09;;;;;;;;;;;;;;;20.70;47.83;100936.84;5038314;28;2185;-71
2023/11/17 09:22:36;;;;;;;;;;;;;;;20.69;47.72;100923.13;5005313;28;1782;-69
2023/11/17 09:25:03;;;;;;;;;;;;;;;20.74;47.62;100933.41;5006304;28;1775;-67
2023/11/17 09:27:30;;;;;;;;;;;;;;;20.76;47.59;100936.41;5002840;28;2324;-67
2023/11/17 09:29:57;;;;;;;;;;;;;;;20.75;47.41;100942.78;5003052;28;2251;-72
2023/11/17 09:32:24;;;;;;;;;;;;;;;20.71;47.33;100935.47;5003259;28;6024;-73
2023/11/17 09:34:50;;;;;;;;;;;;;;;20.77;47.59;100931.38;5003094;28;2247;-71
2023/11/17 09:37:18;;;;;;;;;;;;;;;20.83;47.69;100941.03;5002193;28;2424;-70
2023/11/17 09:39:46;;;;;;;;;;;;;;;20.85;47.39;100937.50;5001329;28;2250;-71
2023/11/17 09:42:12;;;;;;;;;;;;;;;20.88;47.52;100939.09;5003427;28;2190;-70
2023/11/17 09:44:39;;;;;;;;;;;;;;;20.85;47.54;100941.13;5006097;28;2544;-71
2023/11/17 09:47:09;;;;;;;;;;;;;;;20.79;47.24;100943.72;5021340;28;1577;-72
2023/11/17 09:49:35;;;;;;;;;;;;;;;20.77;47.43;100948.66;5019019;28;2283;-74
2023/11/17 09:52:03;;;;;;;;;;;;;;;20.76;47.47;100942.16;5036828;28;2163;-75
2023/11/17 09:54:31;;;;;;;;;;;;;;;20.76;47.29;100941.41;5010726;28;2048;-75
2023/11/17 09:56:57;;;;;;;;;;;;;;;20.78;47.44;100945.13;5009898;28;2182;-71
2023/11/17 09:59:25;;;;;;;;;;;;;;;20.82;47.46;100948.19;5008642;28;2246;-74
2023/11/17 10:01:53;;;;;;;;;;;;;;;20.81;47.42;100949.56;5010413;28;7434;-72
2023/11/17 10:04:20;;;;;;;;;;;;;;;20.80;47.54;100950.22;4971241;28;68023;-72
2023/11/17 10:06:51;;;;;;;;;;;;;;;20.80;47.65;100950.97;4987459;28;2199;-72
2023/11/17 10:09:17;;;;;;;;;;;;;;;20.82;47.87;100962.59;5000725;28;1592;-72
2023/11/17 10:11:46;;;;;;;;;;;;;;;20.82;48.16;100959.72;4998683;28;2277;-71
2023/11/17 10:14:13;;;;;;;;;;;;;;;20.67;45.69;100951.81;4979256;28;2232;-78
2023/11/17 10:16:39;;;;;;;;;;;;;;;20.44;46.43;100953.59;4993823;28;2423;-78
2023/11/17 10:19:07;;;;;;;;;;;;;;;20.43;46.99;100957.09;4974635;28;2370;-78
2023/11/17 10:21:34;;;;;;;;;;;;;;;20.46;46.75;100958.72;4977300;28;2304;-79
2023/11/17 10:24:00;;;;;;;;;;;;;;;20.45;46.81;100957.94;4976679;28;2290;-73
2023/11/17 10:26:28;;;;;;;;;;;;;;;20.41;46.85;100960.66;4976875;28;2273;-75
2023/11/17 10:28:59;;;;;;;;;;;;;;;20.41;47.00;100960.66;4976925;28;2165;-83
2023/11/17 10:31:26;;;;;;;;;;;;;;;20.56;47.25;100967.06;4993224;28;6285;-77
2023/11/17 10:33:54;;;;;;;;;;;;;;;20.60;47.09;100961.53;5028497;28;4204;-73
2023/11/17 10:36:24;;;;;;;;;;;;;;;20.51;47.29;100952.50;5017433;28;2392;-74
2023/11/17 10:39:02;;;;;;;;;;;;;;;19.53;43.77;100956.28;4995702;28;2321;-76
2023/11/17 10:41:32;;;;;;;;;;;;;;;18.76;43.49;100958.66;4996165;28;2394;-72
2023/11/17 10:43:59;;;;;;;;;;;;;;;19.55;42.84;100956.41;4992727;28;4440;-71
2023/11/17 10:46:44;;;;;;;;;;;;;;;19.99;43.05;100953.56;4992199;28;2191;-73
2023/11/17 10:49:19;;;;;;;;;;;;;;;20.15;45.19;100959.38;4994497;28;2799;-76
2023/11/17 10:51:46;;;;;;;;;;;;;;;20.25;44.89;100962.75;4999586;28;2324;-81
2023/11/17 10:54:13;;;;;;;;;;;;;;;20.37;45.71;100963.31;5028519;28;2701;-81
2023/11/17 10:56:41;;;;;;;;;;;;;;;20.42;45.79;100962.13;4995918;28;2651;-72
2023/11/17 10:59:15;;;;;;;;;;;;;;;20.48;46.08;100968.19;5023369;28;4208;-71
2023/11/17 11:01:42;;;;;;;;;;;;;;;20.50;46.17;100973.25;4993688;28;6233;-72
2023/11/17 11:04:09;;;;;;;;;;;;;;;20.51;46.75;100966.13;4993849;28;2314;-71
2023/11/17 11:06:42;;;;;;;;;;;;;;;20.49;46.54;100969.66;5027197;28;2184;-72
2023/11/17 11:09:09;;;;;;;;;;;;;;;20.50;46.58;100971.16;5002892;28;2239;-72
2023/11/17 11:11:35;;;;;;;;;;;;;;;20.60;47.02;100973.78;4999633;28;2194;-71
2023/11/17 11:14:02;;;;;;;;;;;;;;;20.66;46.86;100976.19;4996458;28;4245;-72
2023/11/17 11:16:35;;;;;;;;;;;;;;;20.65;46.82;100986.22;4999534;28;2215;-74
2023/11/17 11:19:02;;;;;;;;;;;;;;;20.57;46.97;100985.84;4997600;28;4349;-70
2023/11/17 11:21:29;;;;;;;;;;;;;;;20.56;46.92;100978.56;4996275;28;2416;-70
2023/11/17 11:23:59;;;;;;;;;;;;;;;20.97;46.63;100992.00;4996935;28;2608;-71
2023/11/17 11:26:26;;;;;;;;;;;;;;;21.16;46.39;100996.47;4998907;28;2355;-71
2023/11/17 11:28:52;;;;;;;;;;;;;;;20.97;46.12;100998.50;4998921;28;2223;-69
2023/11/17 11:31:20;;;;;;;;;;;;;;;20.86;46.92;100987.91;5004545;28;6227;-76
2023/11/17 11:33:47;;;;;;;;;;;;;;;20.69;47.18;100992.19;5037730;28;1636;-75
2023/11/17 11:36:14;;;;;;;;;;;;;;;20.59;47.83;100988.81;5006258;28;2271;-72
2023/11/17 11:38:40;;;;;;;;;;;;;;;20.67;47.26;100994.97;4999739;28;2016;-70
2023/11/17 11:41:15;;;;;;;;;;;;;;;20.69;47.37;100995.06;5028651;28;2156;-70
2023/11/17 11:43:46;;;;;;;;;;;;;;;20.71;47.36;101000.91;5026960;28;2283;-70
2023/11/17 11:46:17;;;;;;;;;;;;;;;20.64;47.52;100993.38;4996529;28;2285;-69
2023/11/17 11:48:50;;;;;;;;;;;;;;;20.62;47.39;100993.28;4997632;28;2213;-67
2023/11/17 11:51:22;;;;;;;;;;;;;;;20.51;47.48;100995.63;4994684;28;4246;-70
2023/11/17 11:53:56;;;;;;;;;;;;;;;20.54;47.73;100999.34;5000008;28;2343;-69
2023/11/17 11:56:29;;;;;;;;;;;;;;;20.63;47.55;100998.38;5000238;28;2160;-69
2023/11/17 11:58:55;;;;;;;;;;;;;;;20.68;47.62;101000.06;4996502;28;2412;-70
2023/11/17 12:01:23;;;;;;;;;;;;;;;20.71;47.46;101012.41;4998231;28;6317;-68
2023/11/17 12:03:53;;;;;;;;;;;;;;;20.72;47.79;101005.25;4998210;28;2209;-69
2023/11/17 12:06:21;;;;;;;;;;;;;;;20.76;47.75;101007.59;4997949;28;4098;-67
2023/11/17 12:08:53;;;;;;;;;;;;;;;20.76;47.74;101010.47;4998323;28;2489;-67
2023/11/17 12:11:20;;;;;;;;;;;;;;;20.74;47.71;101022.63;4997921;28;2460;-67
2023/11/17 12:13:47;;;;;;;;;;;;;;;20.72;47.90;101016.78;4998405;28;2262;-68
2023/11/17 12:16:25;;;;;;;;;;;;;;;20.76;47.84;101025.59;4998885;28;2210;-69
2023/11/17 12:18:52;;;;;;;;;;;;;;;20.70;47.63;101028.94;5013594;28;2238;-68
2023/11/17 12:21:22;;;;;;;;;;;;;;;20.89;47.88;101026.91;4995256;28;2262;-72
2023/11/17 12:23:48;;;;;;;;;;;;;;;19.40;46.72;101029.59;4994666;28;4148;-72
2023/11/17 12:26:18;;;;;;;;;;;;;;;20.16;47.51;101029.84;4995257;28;2464;-72
2023/11/17 12:28:45;;;;;;;;;;;;;;;20.61;46.88;101026.31;4997546;28;3257;-71
2023/11/17 12:31:13;;;;;;;;;;;;;;;20.74;46.92;101034.13;4997370;28;6395;-71
2023/11/17 12:33:43;;;;;;;;;;;;;;;20.86;47.09;101022.47;4994697;28;5011;-71
2023/11/17 12:36:13;;;;;;;;;;;;;;;20.88;46.89;101034.81;5025328;28;2768;-69
2023/11/17 12:38:40;;;;;;;;;;;;;;;20.81;47.52;101030.16;4995507;28;4242;-71
2023/11/17 12:41:10;;;;;;;;;;;;;;;20.81;47.33;101035.91;4999630;28;2216;-72
2023/11/17 12:43:39;;;;;;;;;;;;;;;20.79;47.44;101032.94;4995695;28;2273;-69
2023/11/17 12:46:07;;;;;;;;;;;;;;;20.80;47.56;101045.19;4997573;28;2314;-69
2023/11/17 12:48:35;;;;;;;;;;;;;;;20.77;47.94;101050.09;4997604;28;2060;-70
2023/11/17 12:51:02;;;;;;;;;;;;;;;20.80;47.96;101048.84;5026839;28;2265;-69
2023/11/17 12:53:41;;;;;;;;;;;;;;;20.61;46.81;101046.44;4996582;28;2543;-76